»·PEaware :: SKY424 KHLN-KLVM

SKY424 :: KHLN-KLVM

FLIGHT INFORMATION

Flight Status: Arrived
Operator:
Sky High Charters
More flights by this operator :: More flights under this callsign
Pilot: Ben H. (9170)
Aircraft: CESSNA 310
(C310)
More flights by this aircraft type
Origin: KHLN Helena Regl
United States
Destination: KLVM Mission
United States
More flights between these airports :: More routes between these airports
Route: STAKK4 CONNS V2 LVM
File this flight plan on PilotEdge
Remarks: SKYHIGH SCENARIO 7
Altitude:
(Current/Filed)
11,000ft
Speed:
(Current/Filed)
180kts
Departed: 02-Jan-19 09:26 PM
Arrived: 02-Jan-19 10:09 PM
Distance/Time
Traveled:
84nm/0:43
Distance/Time
To Go:
Arrived

Flight Plot

Page will automatically refresh every two minutes.

Flight plan parsing failed; only flown route is shown


Map Options




Map Legend


Flown Route
Filed Route
Departure Airport
Arrival Airport
Navaid (VOR, NDB)
Fix

Horizontal Profiles

Position Reports

Time Latitude Longitude Heading Altitude Ground
Speed
02-Jan-19 20:44 46.602871 -111.994931 269 3896ft 0kts
02-Jan-19 20:45 46.602871 -111.994931 269 3896ft 0kts
02-Jan-19 20:46 46.602871 -111.994931 269 3896ft 0kts
02-Jan-19 20:47 46.602871 -111.994931 269 3896ft 0kts
02-Jan-19 20:48 46.602871 -111.994931 269 3896ft 0kts
02-Jan-19 20:49 46.602871 -111.994931 269 3896ft 0kts
02-Jan-19 20:50 46.602871 -111.994931 269 3896ft 0kts
02-Jan-19 20:51 46.602871 -111.994931 269 3896ft 0kts
02-Jan-19 20:52 46.602871 -111.994931 269 3896ft 0kts
02-Jan-19 20:53 46.602871 -111.994931 269 3896ft 0kts
02-Jan-19 20:54 46.602871 -111.994931 269 3896ft 0kts
02-Jan-19 20:55 46.602871 -111.994931 269 3896ft 0kts
02-Jan-19 20:56 46.602871 -111.994931 269 3896ft 0kts
02-Jan-19 20:57 46.602871 -111.994931 269 3896ft 0kts
02-Jan-19 20:58 46.602871 -111.994931 269 3896ft 0kts
02-Jan-19 20:59 46.602871 -111.994931 269 3896ft 0kts
02-Jan-19 21:00 46.602871 -111.994931 269 3896ft 0kts
02-Jan-19 21:01 46.602871 -111.994931 269 3896ft 0kts
02-Jan-19 21:02 46.602871 -111.994931 269 3896ft 0kts
02-Jan-19 21:03 46.602871 -111.994931 269 3896ft 0kts
02-Jan-19 21:04 46.602871 -111.994931 269 3896ft 0kts
02-Jan-19 21:05 46.602871 -111.994931 269 3896ft 0kts
02-Jan-19 21:06 46.602871 -111.994931 269 3896ft 0kts
02-Jan-19 21:07 46.603142 -111.995296 324 3894ft 7kts
02-Jan-19 21:08 46.604956 -111.997020 347 3885ft 15kts
02-Jan-19 21:09 46.607570 -111.998424 349 3868ft 0kts
02-Jan-19 21:10 46.607570 -111.998424 349 3868ft 0kts
02-Jan-19 21:11 46.607570 -111.998424 349 3868ft 0kts
02-Jan-19 21:12 46.607570 -111.998424 349 3868ft 0kts
02-Jan-19 21:13 46.607570 -111.998424 349 3868ft 0kts
02-Jan-19 21:14 46.607570 -111.998424 349 3868ft 0kts
02-Jan-19 21:15 46.607570 -111.998424 349 3868ft 0kts
02-Jan-19 21:16 46.607570 -111.998424 349 3868ft 0kts
02-Jan-19 21:17 46.607570 -111.998424 349 3868ft 0kts
02-Jan-19 21:18 46.607570 -111.998424 349 3868ft 0kts
02-Jan-19 21:19 46.607570 -111.998424 349 3868ft 0kts
02-Jan-19 21:20 46.607570 -111.998424 349 3868ft 0kts
02-Jan-19 21:21 46.607570 -111.998424 349 3868ft 0kts
02-Jan-19 21:22 46.607570 -111.998424 349 3868ft 0kts
02-Jan-19 21:23 46.607570 -111.998424 349 3868ft 0kts
02-Jan-19 21:24 46.607626 -111.998437 351 3868ft 4kts
02-Jan-19 21:25 46.605052 -111.974852 105 4021ft 138kts
02-Jan-19 21:26 46.606216 -111.922111 105 5852ft 127kts
02-Jan-19 21:27 46.599815 -111.868587 105 7386ft 147kts
02-Jan-19 21:28 46.592609 -111.808998 107 8984ft 155kts
02-Jan-19 21:29 46.579515 -111.748905 119 10586ft 160kts
02-Jan-19 21:30 46.562296 -111.680848 103 11144ft 223kts
02-Jan-19 21:31 46.532611 -111.611182 194 11011ft 196kts
02-Jan-19 21:32 46.480690 -111.611290 140 11012ft 222kts
02-Jan-19 21:33 46.446620 -111.537968 124 11011ft 219kts
02-Jan-19 21:34 46.416831 -111.461503 118 11033ft 219kts
02-Jan-19 21:35 46.387014 -111.384754 119 11058ft 219kts
02-Jan-19 21:36 46.357049 -111.308010 120 11062ft 219kts
02-Jan-19 21:37 46.327299 -111.232000 120 11063ft 218kts
02-Jan-19 21:38 46.297106 -111.155063 120 11063ft 218kts
02-Jan-19 21:39 46.264821 -111.081370 139 11077ft 215kts
02-Jan-19 21:40 46.220124 -111.024776 144 11064ft 212kts
02-Jan-19 21:41 46.174917 -110.972340 145 11064ft 206kts
02-Jan-19 21:42 46.130103 -110.921109 144 11066ft 204kts
02-Jan-19 21:43 46.085248 -110.871043 145 11065ft 204kts
02-Jan-19 21:44 46.040293 -110.821502 145 11051ft 204kts
02-Jan-19 21:45 45.993461 -110.768613 145 11038ft 222kts
02-Jan-19 21:46 45.944409 -110.713194 145 11020ft 225kts
02-Jan-19 21:47 45.896110 -110.658775 145 10997ft 223kts
02-Jan-19 21:48 45.849316 -110.606138 146 10990ft 211kts
02-Jan-19 21:49 45.803351 -110.554551 146 10992ft 209kts
02-Jan-19 21:50 45.757796 -110.503536 146 10992ft 208kts
02-Jan-19 21:51 45.712212 -110.452598 146 10992ft 208kts
02-Jan-19 21:52 45.709287 -110.389469 24 10998ft 180kts
02-Jan-19 21:53 45.740639 -110.330775 53 10988ft 196kts
02-Jan-19 21:54 45.765343 -110.261328 54 10988ft 196kts
02-Jan-19 21:55 45.789791 -110.191142 55 10988ft 196kts
02-Jan-19 21:56 45.798823 -110.114764 98 10994ft 209kts
02-Jan-19 21:57 45.807198 -110.034703 67 10787ft 202kts
02-Jan-19 21:58 45.832189 -109.975856 335 9809ft 166kts
02-Jan-19 21:59 45.842806 -110.024807 257 9280ft 146kts
02-Jan-19 22:00 45.827776 -110.078152 253 8720ft 148kts
02-Jan-19 22:01 45.809869 -110.131710 249 8083ft 145kts
02-Jan-19 22:02 45.792156 -110.183699 250 7919ft 147kts
02-Jan-19 22:03 45.774165 -110.237052 249 7417ft 149kts
02-Jan-19 22:04 45.755503 -110.290230 247 6874ft 151kts
02-Jan-19 22:05 45.736445 -110.344067 247 6248ft 151kts
02-Jan-19 22:06 45.720141 -110.395622 247 5520ft 127kts
02-Jan-19 22:07 45.706694 -110.427860 246 4670ft 61kts
02-Jan-19 22:08 45.699859 -110.441991 235 4638ft 19kts
02-Jan-19 22:09 45.695583 -110.450615 229 4638ft 23kts
02-Jan-19 22:10 45.696611 -110.453200 320 4638ft 0kts
02-Jan-19 22:11 45.696611 -110.453200 320 4638ft 0kts
02-Jan-19 22:12 45.696611 -110.453200 320 4638ft 0kts
02-Jan-19 22:13 45.696611 -110.453200 320 4638ft 0kts

Navigation Log

Ident Type
Flight plan parsing failed, navigation log unavailable